Time;durP1;ratioP1;P1;durP2;ratioP2;P2;SDS_P1;SDS_P2;PMS_P1;PMS_P2;Temp;Humidity;BMP_temperature;BMP_pressure;BME280_temperature;BME280_humidity;BME280_pressure;Samples;Min_cycle;Max_cycle;Signal;HPM_P1;HPM_P2
2022/10/29 00:00:50;;;;;;;16.83;6.82;;;;;;;;;;6096419;23;20018;-78
2022/10/29 00:03:16;;;;;;;18.35;6.75;;;;;;;;;;6120058;23;20049;-78
2022/10/29 00:05:42;;;;;;;16.67;6.93;;;;;;;;;;6120521;23;20053;-77
2022/10/29 00:08:08;;;;;;;17.00;7.85;;;;;;;;;;6072539;23;20092;-77
2022/10/29 00:10:34;;;;;;;12.30;6.22;;;;;;;;;;6095537;23;20064;-77
2022/10/29 00:13:01;;;;;;;13.65;7.50;;;;;;;;;;6095634;23;20131;-77
2022/10/29 00:15:27;;;;;;;12.25;6.50;;;;;;;;;;6120651;23;20029;-77
2022/10/29 00:17:53;;;;;;;10.07;5.82;;;;;;;;;;6119725;23;20014;-77
2022/10/29 00:20:20;;;;;;;24.02;7.25;;;;;;;;;;6119927;23;20103;-77
2022/10/29 00:22:46;;;;;;;11.27;7.13;;;;;;;;;;6094598;23;20108;-77
2022/10/29 00:25:13;;;;;;;8.32;6.03;;;;;;;;;;6119695;23;20017;-76
2022/10/29 00:27:39;;;;;;;10.70;5.80;;;;;;;;;;6119197;23;20088;-77
2022/10/29 00:30:05;;;;;;;13.07;5.55;;;;;;;;;;6119379;23;20531;-76
2022/10/29 00:32:31;;;;;;;12.07;6.05;;;;;;;;;;6119549;23;20010;-77
2022/10/29 00:34:57;;;;;;;32.85;8.93;;;;;;;;;;6094962;23;20018;-77
2022/10/29 00:37:23;;;;;;;8.88;6.05;;;;;;;;;;6118827;23;20021;-77
2022/10/29 00:39:49;;;;;;;8.05;5.25;;;;;;;;;;6094715;23;20021;-77
2022/10/29 00:42:16;;;;;;;8.60;5.15;;;;;;;;;;6119070;23;20041;-77
2022/10/29 00:44:42;;;;;;;9.80;6.32;;;;;;;;;;6118404;23;20032;-77
2022/10/29 00:47:15;;;;;;;11.25;6.85;;;;;;;;;;6119812;23;20018;-77
2022/10/29 00:49:41;;;;;;;25.88;7.68;;;;;;;;;;6093250;23;20017;-77
2022/10/29 00:52:08;;;;;;;40.92;9.30;;;;;;;;;;6119233;23;20061;-77
2022/10/29 00:54:38;;;;;;;72.07;10.93;;;;;;;;;;6070405;23;20040;-77
2022/10/29 00:57:07;;;;;;;7.47;5.00;;;;;;;;;;6119077;23;20439;-77
2022/10/29 00:59:33;;;;;;;71.55;10.77;;;;;;;;;;6119642;23;20021;-77
2022/10/29 01:01:59;;;;;;;10.07;5.45;;;;;;;;;;6118962;23;20075;-77
2022/10/29 01:04:25;;;;;;;68.03;11.65;;;;;;;;;;6118762;23;20049;-77
2022/10/29 01:06:52;;;;;;;41.85;9.18;;;;;;;;;;6119454;23;20106;-77
2022/10/29 01:09:18;;;;;;;51.20;9.85;;;;;;;;;;6119089;23;20022;-77
2022/10/29 01:11:51;;;;;;;34.20;7.45;;;;;;;;;;6070377;23;20966;-77
2022/10/29 01:14:17;;;;;;;;;;;;;;;;;;6119994;23;20580;-77
2022/10/29 01:16:49;;;;;;;35.65;8.27;;;;;;;;;;6118414;23;19992;-77
2022/10/29 01:19:31;;;;;;;101.45;13.40;;;;;;;;;;6118909;23;20056;-78
2022/10/29 01:21:57;;;;;;;22.58;6.70;;;;;;;;;;6094242;23;20010;-77
2022/10/29 01:24:23;;;;;;;63.65;11.95;;;;;;;;;;6119068;23;20017;-77
2022/10/29 01:27:07;;;;;;;24.40;8.43;;;;;;;;;;6118952;23;20029;-77
2022/10/29 01:29:34;;;;;;;32.35;7.68;;;;;;;;;;6118309;23;20040;-77
2022/10/29 01:32:13;;;;;;;22.63;7.43;;;;;;;;;;6118586;23;20010;-77
2022/10/29 01:34:45;;;;;;;15.68;7.20;;;;;;;;;;6093537;23;20026;-77
2022/10/29 01:37:19;;;;;;;16.30;6.80;;;;;;;;;;6117101;23;20405;-77
2022/10/29 01:39:51;;;;;;;27.98;6.22;;;;;;;;;;6094543;23;20014;-77
2022/10/29 01:42:23;;;;;;;9.73;5.82;;;;;;;;;;6118578;23;20021;-77
2022/10/29 01:44:53;;;;;;;28.13;7.97;;;;;;;;;;6118223;23;20017;-77
2022/10/29 01:47:20;;;;;;;38.85;7.55;;;;;;;;;;6093794;23;20053;-77
2022/10/29 01:49:48;;;;;;;16.40;5.95;;;;;;;;;;6119067;23;20014;-77
2022/10/29 01:52:16;;;;;;;9.43;5.45;;;;;;;;;;6094086;23;20105;-77
2022/10/29 01:54:43;;;;;;;45.92;7.57;;;;;;;;;;6092664;23;20029;-78
2022/10/29 01:57:28;;;;;;;9.65;5.32;;;;;;;;;;6046488;23;20357;-77
2022/10/29 01:59:57;;;;;;;6.53;5.32;;;;;;;;;;6119213;23;20014;-77
2022/10/29 02:02:28;;;;;;;8.32;5.85;;;;;;;;;;6094141;23;20014;-77
2022/10/29 02:05:01;;;;;;;17.10;7.13;;;;;;;;;;6093675;23;20017;-77
2022/10/29 02:07:27;;;;;;;;;;;;;;;;;;6094036;23;20013;-77
2022/10/29 02:10:07;;;;;;;13.60;6.70;;;;;;;;;;6094296;23;20263;-77
2022/10/29 02:12:43;;;;;;;26.02;8.15;;;;;;;;;;6117511;23;20010;-78
2022/10/29 02:15:12;;;;;;;85.93;11.80;;;;;;;;;;6117885;23;20097;-78
2022/10/29 02:17:39;;;;;;;25.00;6.10;;;;;;;;;;6093457;23;20020;-77
2022/10/29 02:20:06;;;;;;;107.53;13.50;;;;;;;;;;6070130;23;20018;-77
2022/10/29 02:22:32;;;;;;;103.68;12.88;;;;;;;;;;6118652;23;20053;-78
2022/10/29 02:24:58;;;;;;;22.20;7.45;;;;;;;;;;6118152;23;20381;-78
2022/10/29 02:27:25;;;;;;;63.70;11.98;;;;;;;;;;6118435;23;20137;-78
2022/10/29 02:29:51;;;;;;;91.95;14.38;;;;;;;;;;6118719;23;20507;-78
2022/10/29 02:32:17;;;;;;;12.50;5.82;;;;;;;;;;6118370;23;20014;-78
2022/10/29 02:34:43;;;;;;;11.18;6.50;;;;;;;;;;6118253;23;20479;-78
2022/10/29 02:37:09;;;;;;;21.55;7.28;;;;;;;;;;6071099;23;20017;-77
2022/10/29 02:39:35;;;;;;;124.18;14.30;;;;;;;;;;6118422;23;20010;-78
2022/10/29 02:42:01;;;;;;;65.97;8.27;;;;;;;;;;6118461;23;20086;-78
2022/10/29 02:44:27;;;;;;;27.33;7.00;;;;;;;;;;6118727;23;20495;-78
2022/10/29 02:46:53;;;;;;;45.00;8.13;;;;;;;;;;6117346;23;20021;-78
2022/10/29 02:49:19;;;;;;;115.63;10.77;;;;;;;;;;6116530;23;20033;-77
2022/10/29 02:51:45;;;;;;;12.02;5.20;;;;;;;;;;6092958;23;20060;-77
2022/10/29 02:54:11;;;;;;;24.55;6.43;;;;;;;;;;6117701;23;20397;-77
2022/10/29 02:56:37;;;;;;;32.70;6.30;;;;;;;;;;6117992;23;20623;-77
2022/10/29 02:59:03;;;;;;;109.28;11.15;;;;;;;;;;6118875;23;20333;-77
2022/10/29 03:01:30;;;;;;;67.05;10.20;;;;;;;;;;6095531;23;20114;-77
2022/10/29 03:03:56;;;;;;;28.05;6.68;;;;;;;;;;6119901;23;20073;-77
2022/10/29 03:06:22;;;;;;;18.30;5.20;;;;;;;;;;6120636;23;20020;-77
2022/10/29 03:08:48;;;;;;;29.58;6.20;;;;;;;;;;6096834;23;20441;-77
2022/10/29 03:11:14;;;;;;;70.38;11.07;;;;;;;;;;6120397;23;20416;-77
2022/10/29 03:13:41;;;;;;;66.65;9.57;;;;;;;;;;6120348;23;20010;-77
2022/10/29 03:16:07;;;;;;;38.47;8.27;;;;;;;;;;6120891;23;20014;-77
2022/10/29 03:18:33;;;;;;;77.80;9.48;;;;;;;;;;6120418;23;20428;-77
2022/10/29 03:20:59;;;;;;;54.35;9.95;;;;;;;;;;6072018;23;20017;-77
2022/10/29 03:23:25;;;;;;;15.15;6.85;;;;;;;;;;6096888;23;20021;-77
2022/10/29 03:25:52;;;;;;;120.43;13.10;;;;;;;;;;6119007;23;20207;-77
2022/10/29 03:28:19;;;;;;;99.80;11.88;;;;;;;;;;6120253;23;20448;-78
2022/10/29 03:30:45;;;;;;;74.50;8.88;;;;;;;;;;6119182;23;20139;-78
2022/10/29 03:33:11;;;;;;;101.78;10.48;;;;;;;;;;6120532;23;20341;-77
2022/10/29 03:35:37;;;;;;;132.13;13.55;;;;;;;;;;6094827;23;20014;-78
2022/10/29 03:38:03;;;;;;;176.10;13.43;;;;;;;;;;6096039;23;20018;-78
2022/10/29 03:40:29;;;;;;;108.78;13.20;;;;;;;;;;6119746;23;20014;-78
2022/10/29 03:42:55;;;;;;;53.15;6.93;;;;;;;;;;6118885;23;20029;-77
2022/10/29 03:45:21;;;;;;;99.97;11.73;;;;;;;;;;6094625;23;20020;-77
2022/10/29 03:47:48;;;;;;;75.32;9.38;;;;;;;;;;6119237;23;20017;-77
2022/10/29 03:50:14;;;;;;;85.93;10.63;;;;;;;;;;6118883;23;20018;-78
2022/10/29 03:52:40;;;;;;;33.53;7.43;;;;;;;;;;6119709;23;20098;-78
2022/10/29 03:55:06;;;;;;;182.32;16.25;;;;;;;;;;6120541;23;20045;-77
2022/10/29 03:57:32;;;;;;;70.30;9.88;;;;;;;;;;6094669;23;20085;-78
2022/10/29 03:59:59;;;;;;;157.98;16.25;;;;;;;;;;6095781;23;20026;-77
2022/10/29 04:02:26;;;;;;;81.85;9.57;;;;;;;;;;6071495;23;20033;-77
2022/10/29 04:04:52;;;;;;;51.47;8.25;;;;;;;;;;6119751;23;20463;-77
2022/10/29 04:07:18;;;;;;;39.28;8.23;;;;;;;;;;6119716;23;20014;-78
2022/10/29 04:09:44;;;;;;;24.50;7.00;;;;;;;;;;6095576;23;20591;-77
2022/10/29 04:12:10;;;;;;;51.05;8.60;;;;;;;;;;6095140;23;20017;-77
2022/10/29 04:14:37;;;;;;;50.45;8.23;;;;;;;;;;6119262;23;20808;-77
2022/10/29 04:17:03;;;;;;;109.50;12.30;;;;;;;;;;6120214;23;20050;-78
2022/10/29 04:19:29;;;;;;;45.67;8.57;;;;;;;;;;6095260;23;20123;-77
2022/10/29 04:21:55;;;;;;;56.47;9.02;;;;;;;;;;6119895;23;20088;-77
2022/10/29 04:24:21;;;;;;;62.95;8.73;;;;;;;;;;6095554;23;20017;-77
2022/10/29 04:26:47;;;;;;;46.17;7.72;;;;;;;;;;6095021;23;20026;-77
2022/10/29 04:29:13;;;;;;;76.40;11.60;;;;;;;;;;6119219;23;20108;-77
2022/10/29 04:31:39;;;;;;;80.63;10.38;;;;;;;;;;6095457;23;20348;-77
2022/10/29 04:34:05;;;;;;;83.43;10.40;;;;;;;;;;6118953;23;20014;-77
2022/10/29 04:36:31;;;;;;;47.08;8.50;;;;;;;;;;6094686;23;20014;-77
2022/10/29 04:38:57;;;;;;;56.28;8.88;;;;;;;;;;6119247;23;20065;-78
2022/10/29 04:41:24;;;;;;;54.78;10.00;;;;;;;;;;6095161;23;20013;-77
2022/10/29 04:43:50;;;;;;;144.73;15.82;;;;;;;;;;6094658;23;20045;-77
2022/10/29 04:46:16;;;;;;;155.95;15.93;;;;;;;;;;6118509;23;20053;-78
2022/10/29 04:48:42;;;;;;;56.13;9.95;;;;;;;;;;6119502;23;20030;-77
2022/10/29 04:51:17;;;;;;;140.45;14.00;;;;;;;;;;6118999;23;20045;-78
2022/10/29 04:53:43;;;;;;;160.55;14.93;;;;;;;;;;6119311;23;20010;-78
2022/10/29 04:56:09;;;;;;;160.55;16.65;;;;;;;;;;6095667;23;20073;-77
2022/10/29 04:58:36;;;;;;;66.10;14.27;;;;;;;;;;6118823;23;20010;-77
2022/10/29 05:01:04;;;;;;;151.95;18.20;;;;;;;;;;6094813;23;20032;-77
2022/10/29 05:03:31;;;;;;;104.35;13.98;;;;;;;;;;6118704;23;20641;-77
2022/10/29 05:05:57;;;;;;;225.35;22.15;;;;;;;;;;6119377;23;20130;-77
2022/10/29 05:08:23;;;;;;;108.28;14.88;;;;;;;;;;6119641;23;20022;-77
2022/10/29 05:10:49;;;;;;;107.63;13.82;;;;;;;;;;6070836;23;20013;-77
2022/10/29 05:13:15;;;;;;;177.38;16.77;;;;;;;;;;6120104;23;20348;-77
2022/10/29 05:15:41;;;;;;;161.27;15.27;;;;;;;;;;6119513;23;20018;-77
2022/10/29 05:18:07;;;;;;;138.30;16.27;;;;;;;;;;6119035;23;20029;-77
2022/10/29 05:20:34;;;;;;;136.45;15.20;;;;;;;;;;6094710;23;20112;-77
2022/10/29 05:23:00;;;;;;;55.72;10.15;;;;;;;;;;6118598;23;20131;-77
2022/10/29 05:25:27;;;;;;;85.65;13.15;;;;;;;;;;6117880;23;20104;-77
2022/10/29 05:28:00;;;;;;;27.63;7.85;;;;;;;;;;6118397;23;20014;-77
2022/10/29 05:30:26;;;;;;;106.32;14.65;;;;;;;;;;6119109;23;20030;-77
2022/10/29 05:32:52;;;;;;;45.20;11.15;;;;;;;;;;6091909;23;20053;-77
2022/10/29 05:35:18;;;;;;;124.97;14.60;;;;;;;;;;6117666;23;20018;-77
2022/10/29 05:37:50;;;;;;;140.10;16.10;;;;;;;;;;6115861;23;20018;-77
2022/10/29 05:40:16;;;;;;;112.43;14.60;;;;;;;;;;6114827;23;20033;-77
2022/10/29 05:42:42;;;;;;;75.07;12.45;;;;;;;;;;6092242;23;20045;-77
2022/10/29 05:45:08;;;;;;;46.47;9.77;;;;;;;;;;6115525;23;20352;-77
2022/10/29 05:47:34;;;;;;;46.85;9.98;;;;;;;;;;6115430;23;20072;-77
2022/10/29 05:50:01;;;;;;;128.05;17.17;;;;;;;;;;6116044;23;20464;-77
2022/10/29 05:52:27;;;;;;;41.80;9.40;;;;;;;;;;6115416;23;20018;-77
2022/10/29 05:54:53;;;;;;;18.10;8.70;;;;;;;;;;6091565;23;20014;-77
2022/10/29 05:57:19;;;;;;;81.45;11.63;;;;;;;;;;6116580;23;20159;-77
2022/10/29 05:59:45;;;;;;;15.93;8.10;;;;;;;;;;6116242;23;20437;-77
2022/10/29 06:02:12;;;;;;;37.67;8.77;;;;;;;;;;6115515;23;20026;-78
2022/10/29 06:04:38;;;;;;;32.05;10.35;;;;;;;;;;6092351;23;20022;-77
2022/10/29 06:07:04;;;;;;;19.10;9.80;;;;;;;;;;6114785;23;20024;-78
2022/10/29 06:09:30;;;;;;;56.78;11.57;;;;;;;;;;6115511;23;20523;-77
2022/10/29 06:11:56;;;;;;;29.10;9.23;;;;;;;;;;6115036;23;20389;-77
2022/10/29 06:14:22;;;;;;;142.45;19.67;;;;;;;;;;6115658;23;20098;-76
2022/10/29 06:16:49;;;;;;;12.65;8.63;;;;;;;;;;6113175;23;20049;-76
2022/10/29 06:19:15;;;;;;;26.52;9.25;;;;;;;;;;6089789;23;20017;-76
2022/10/29 06:21:41;;;;;;;44.38;11.52;;;;;;;;;;6115560;23;20076;-76
2022/10/29 06:24:09;;;;;;;20.17;8.75;;;;;;;;;;6115404;23;20028;-76
2022/10/29 06:26:36;;;;;;;121.10;14.88;;;;;;;;;;6115639;23;20022;-76
2022/10/29 06:29:02;;;;;;;99.47;16.23;;;;;;;;;;6090695;23;20048;-76
2022/10/29 06:31:28;;;;;;;45.95;10.75;;;;;;;;;;6115076;23;20030;-76
2022/10/29 06:33:55;;;;;;;15.95;9.40;;;;;;;;;;6090403;23;20049;-76
2022/10/29 06:36:21;;;;;;;65.25;12.10;;;;;;;;;;6116723;23;20484;-76
2022/10/29 06:38:47;;;;;;;64.03;12.55;;;;;;;;;;6069023;23;20113;-76
2022/10/29 06:41:13;;;;;;;15.20;7.65;;;;;;;;;;6092206;23;20693;-76
2022/10/29 06:43:39;;;;;;;12.60;7.72;;;;;;;;;;6116464;23;20024;-76
2022/10/29 06:46:06;;;;;;;44.00;10.95;;;;;;;;;;6092895;23;20018;-76
2022/10/29 06:48:32;;;;;;;33.22;9.65;;;;;;;;;;6116468;23;20032;-75
2022/10/29 06:50:59;;;;;;;27.73;9.68;;;;;;;;;;6117021;23;20116;-75
2022/10/29 06:53:25;;;;;;;25.77;9.57;;;;;;;;;;6091824;23;20014;-76
2022/10/29 06:55:51;;;;;;;14.95;8.85;;;;;;;;;;6117796;23;20301;-75
2022/10/29 06:58:19;;;;;;;17.80;10.23;;;;;;;;;;6093791;23;20013;-75
2022/10/29 07:00:45;;;;;;;124.82;16.13;;;;;;;;;;6119215;23;20115;-75
2022/10/29 07:03:15;;;;;;;46.92;12.43;;;;;;;;;;6116668;23;20021;-75
2022/10/29 07:05:41;;;;;;;21.08;10.55;;;;;;;;;;6047520;23;20037;-76
2022/10/29 07:08:07;;;;;;;63.97;12.15;;;;;;;;;;6115404;23;20312;-76
2022/10/29 07:10:33;;;;;;;31.75;10.48;;;;;;;;;;6118425;23;20014;-76
2022/10/29 07:13:00;;;;;;;75.47;10.77;;;;;;;;;;6118763;23;20084;-75
2022/10/29 07:15:26;;;;;;;86.43;14.32;;;;;;;;;;6118931;23;20104;-75
2022/10/29 07:17:55;;;;;;;21.40;9.60;;;;;;;;;;6117574;23;20482;-76
2022/10/29 07:20:21;;;;;;;85.68;13.95;;;;;;;;;;6120089;23;20515;-76
2022/10/29 07:22:48;;;;;;;38.97;10.88;;;;;;;;;;6096101;23;20028;-75
2022/10/29 07:25:14;;;;;;;23.40;10.35;;;;;;;;;;6119976;23;20302;-75
2022/10/29 07:27:40;;;;;;;33.58;10.13;;;;;;;;;;6094201;23;20018;-75
2022/10/29 07:30:06;;;;;;;37.38;10.25;;;;;;;;;;6096165;23;20193;-75
2022/10/29 07:32:32;;;;;;;17.50;8.20;;;;;;;;;;6120140;23;20014;-75
2022/10/29 07:34:58;;;;;;;19.20;9.38;;;;;;;;;;6096017;23;20018;-75
2022/10/29 07:37:25;;;;;;;17.90;10.10;;;;;;;;;;6120947;23;20064;-75
2022/10/29 07:39:51;;;;;;;23.17;10.25;;;;;;;;;;6119410;23;20057;-77
2022/10/29 07:42:17;;;;;;;23.60;10.90;;;;;;;;;;6118546;23;20056;-75
2022/10/29 07:44:43;;;;;;;20.92;11.15;;;;;;;;;;6118608;23;20511;-75
2022/10/29 07:47:09;;;;;;;27.73;13.68;;;;;;;;;;6117709;23;20017;-75
2022/10/29 07:49:36;;;;;;;28.58;13.35;;;;;;;;;;6119209;23;20701;-75
2022/10/29 07:52:02;;;;;;;39.15;15.77;;;;;;;;;;6119953;23;20033;-75
2022/10/29 07:54:28;;;;;;;31.80;14.10;;;;;;;;;;6118874;23;20447;-75
2022/10/29 07:56:54;;;;;;;23.75;12.20;;;;;;;;;;6095777;23;20018;-75
2022/10/29 07:59:20;;;;;;;23.20;12.48;;;;;;;;;;6096187;23;20014;-75
2022/10/29 08:01:46;;;;;;;31.63;12.75;;;;;;;;;;6119533;23;20018;-75
2022/10/29 08:04:12;;;;;;;27.73;12.40;;;;;;;;;;6069077;23;20018;-75
2022/10/29 08:06:39;;;;;;;36.63;14.55;;;;;;;;;;6117798;23;20041;-75
2022/10/29 08:09:06;;;;;;;37.33;14.70;;;;;;;;;;6069751;23;20022;-76
2022/10/29 08:11:32;;;;;;;26.70;13.93;;;;;;;;;;6118786;23;20052;-75
2022/10/29 08:13:58;;;;;;;38.85;17.75;;;;;;;;;;6118172;23;20123;-75
2022/10/29 08:16:24;;;;;;;42.60;20.45;;;;;;;;;;6117584;23;20246;-75
2022/10/29 08:18:51;;;;;;;37.17;20.23;;;;;;;;;;6093705;23;20101;-75
2022/10/29 08:21:17;;;;;;;37.20;21.48;;;;;;;;;;6094243;23;20348;-75
2022/10/29 08:23:43;;;;;;;41.92;18.90;;;;;;;;;;6118180;23;20046;-75
2022/10/29 08:26:10;;;;;;;38.47;19.25;;;;;;;;;;6118797;23;20113;-75
2022/10/29 08:28:36;;;;;;;40.50;20.77;;;;;;;;;;6117849;23;20072;-75
2022/10/29 08:31:02;;;;;;;38.33;20.80;;;;;;;;;;6118443;23;20397;-75
2022/10/29 08:33:29;;;;;;;42.05;21.67;;;;;;;;;;6118645;23;20010;-75
2022/10/29 08:35:55;;;;;;;35.78;19.52;;;;;;;;;;6117302;23;20403;-75
2022/10/29 08:38:24;;;;;;;34.80;19.67;;;;;;;;;;6093262;23;20017;-75
2022/10/29 08:41:03;;;;;;;32.97;20.45;;;;;;;;;;6092231;23;20452;-75
2022/10/29 08:43:32;;;;;;;37.67;21.10;;;;;;;;;;6117790;23;20074;-75
2022/10/29 08:45:58;;;;;;;38.78;21.65;;;;;;;;;;6117660;23;20293;-75
2022/10/29 08:48:33;;;;;;;34.00;21.23;;;;;;;;;;6116519;23;20037;-75
2022/10/29 08:51:02;;;;;;;39.50;20.77;;;;;;;;;;6116283;23;20152;-75
2022/10/29 08:53:36;;;;;;;34.63;20.25;;;;;;;;;;6117038;23;20028;-75
2022/10/29 08:56:04;;;;;;;42.03;21.27;;;;;;;;;;6117452;23;20017;-75
2022/10/29 08:58:33;;;;;;;39.40;21.95;;;;;;;;;;6117239;23;20041;-75
2022/10/29 09:00:59;;;;;;;34.05;20.77;;;;;;;;;;6117114;23;20045;-75
2022/10/29 09:03:28;;;;;;;34.78;18.25;;;;;;;;;;6117208;23;20475;-75
2022/10/29 09:05:57;;;;;;;33.78;20.48;;;;;;;;;;6117474;23;20040;-75
2022/10/29 09:08:42;;;;;;;39.50;21.05;;;;;;;;;;6091670;23;20497;-75
2022/10/29 09:11:32;;;;;;;38.47;21.17;;;;;;;;;;6068826;23;20030;-76
2022/10/29 09:14:10;;;;;;;35.90;20.15;;;;;;;;;;6115583;23;20093;-75
2022/10/29 09:16:51;;;;;;;34.70;17.75;;;;;;;;;;6092590;23;20029;-76
2022/10/29 09:19:20;;;;;;;40.63;21.02;;;;;;;;;;6092537;23;20097;-75
2022/10/29 09:21:55;;;;;;;34.08;21.13;;;;;;;;;;6117334;23;20010;-75
2022/10/29 09:24:40;;;;;;;32.97;20.27;;;;;;;;;;6116790;23;20484;-75
2022/10/29 09:27:09;;;;;;;33.20;19.70;;;;;;;;;;6116731;23;20096;-76
2022/10/29 09:29:46;;;;;;;32.30;18.73;;;;;;;;;;6116652;23;20026;-75
2022/10/29 09:32:19;;;;;;;34.95;19.55;;;;;;;;;;6117374;23;20014;-75
2022/10/29 09:35:01;;;;;;;32.42;18.30;;;;;;;;;;6092711;23;20072;-76
2022/10/29 09:37:40;;;;;;;30.08;21.02;;;;;;;;;;6117021;23;20020;-75
2022/10/29 09:40:14;;;;;;;34.10;18.77;;;;;;;;;;6092592;23;20519;-76
2022/10/29 09:42:42;;;;;;;33.83;20.05;;;;;;;;;;6117096;23;20604;-75
2022/10/29 09:45:13;;;;;;;30.15;18.42;;;;;;;;;;6093096;23;20073;-75
2022/10/29 09:47:52;;;;;;;39.15;19.35;;;;;;;;;;6117785;23;20462;-76
2022/10/29 09:50:25;;;;;;;28.50;18.90;;;;;;;;;;6116602;23;20014;-76
2022/10/29 09:52:52;;;;;;;27.80;18.13;;;;;;;;;;6116859;23;20014;-75
2022/10/29 09:55:28;;;;;;;38.90;20.63;;;;;;;;;;6117530;23;20092;-76
2022/10/29 09:57:56;;;;;;;29.30;19.02;;;;;;;;;;6092647;23;20018;-76
2022/10/29 10:00:24;;;;;;;32.47;18.35;;;;;;;;;;6068495;23;20448;-75
2022/10/29 10:02:53;;;;;;;27.05;18.38;;;;;;;;;;6116754;23;20437;-76
2022/10/29 10:05:25;;;;;;;34.67;19.15;;;;;;;;;;6118361;23;20029;-76
2022/10/29 10:08:05;;;;;;;34.80;20.60;;;;;;;;;;6092809;23;20076;-75
2022/10/29 10:10:31;;;;;;;31.33;19.63;;;;;;;;;;6116125;23;20052;-75
2022/10/29 10:13:01;;;;;;;27.60;18.10;;;;;;;;;;6090985;23;20736;-75
2022/10/29 10:15:32;;;;;;;32.72;18.05;;;;;;;;;;6115630;23;20345;-75
2022/10/29 10:18:00;;;;;;;27.27;17.23;;;;;;;;;;6088629;23;20097;-74
2022/10/29 10:20:26;;;;;;;28.70;17.85;;;;;;;;;;6113423;23;20050;-75
2022/10/29 10:22:52;;;;;;;35.70;19.48;;;;;;;;;;6116289;23;20018;-75
2022/10/29 10:25:33;;;;;;;30.45;15.65;;;;;;;;;;6117653;23;20157;-75
2022/10/29 10:28:03;;;;;;;27.23;17.23;;;;;;;;;;6092837;23;20026;-75
2022/10/29 10:30:29;;;;;;;28.45;16.40;;;;;;;;;;6116770;23;20022;-75
2022/10/29 10:33:09;;;;;;;27.13;16.77;;;;;;;;;;6117020;23;20111;-76
2022/10/29 10:35:36;;;;;;;27.40;16.33;;;;;;;;;;6093455;23;20038;-75
2022/10/29 10:38:10;;;;;;;30.55;17.05;;;;;;;;;;6093562;23;20013;-75
2022/10/29 10:40:36;;;;;;;28.08;16.10;;;;;;;;;;6116380;23;20010;-75
2022/10/29 10:43:03;;;;;;;28.15;15.57;;;;;;;;;;6068847;23;20025;-75
2022/10/29 10:45:34;;;;;;;23.63;15.45;;;;;;;;;;6092984;23;20022;-75
2022/10/29 10:48:00;;;;;;;20.73;14.85;;;;;;;;;;6116916;23;20316;-75
2022/10/29 10:50:34;;;;;;;22.73;14.63;;;;;;;;;;6068593;23;20028;-75
2022/10/29 10:53:04;;;;;;;24.00;14.93;;;;;;;;;;6116452;23;20572;-75
2022/10/29 10:55:31;;;;;;;24.42;15.80;;;;;;;;;;6093913;23;20030;-75
2022/10/29 10:58:04;;;;;;;21.90;14.55;;;;;;;;;;6093431;23;20014;-75
2022/10/29 11:00:30;;;;;;;;;;;;;;;;;;6117883;23;20516;-75
2022/10/29 11:02:56;;;;;;;24.40;14.73;;;;;;;;;;6115644;23;19940;-75
2022/10/29 11:05:25;;;;;;;26.88;13.65;;;;;;;;;;6116296;23;20028;-75
2022/10/29 11:08:13;;;;;;;31.42;14.30;;;;;;;;;;6115752;23;20499;-76
2022/10/29 11:10:48;;;;;;;21.45;12.75;;;;;;;;;;6116410;23;20018;-76
2022/10/29 11:13:16;;;;;;;32.08;15.80;;;;;;;;;;6114084;23;20306;-76
2022/10/29 11:15:47;;;;;;;25.52;13.70;;;;;;;;;;6094197;23;20018;-76
2022/10/29 11:18:19;;;;;;;25.13;14.48;;;;;;;;;;6116853;23;20018;-76
2022/10/29 11:20:49;;;;;;;29.05;14.25;;;;;;;;;;6112507;23;20026;-75
2022/10/29 11:23:18;;;;;;;21.63;12.98;;;;;;;;;;6117721;23;20029;-76
2022/10/29 11:25:48;;;;;;;19.92;13.75;;;;;;;;;;6091457;23;20022;-76
2022/10/29 11:28:26;;;;;;;22.30;13.40;;;18.50;99.90;;;;;;6116594;23;20018;-76
2022/10/29 11:31:09;;;;;;;26.27;13.82;;;16.00;99.90;;;;;;6117648;23;20022;-76
2022/10/29 11:33:41;;;;;;;22.98;13.68;;;;;;;;;;6119635;23;20352;-76
2022/10/29 11:36:16;;;;;;;18.73;12.70;;;;;;;;;;6117273;23;20021;-75
2022/10/29 11:38:44;;;;;;;23.33;13.82;;;;;;;;;;6118246;23;20068;-75
2022/10/29 11:41:24;;;;;;;18.23;11.88;;;;;;;;;;6118821;23;20159;-75
2022/10/29 11:43:51;;;;;;;19.55;12.73;;;;;;;;;;6117472;23;20096;-76
2022/10/29 11:46:17;;;;;;;22.30;13.48;;;;;;;;;;6118656;23;20022;-76
2022/10/29 11:48:52;;;;;;;25.25;12.40;;;;;;;;;;6118471;23;20014;-76
2022/10/29 11:51:38;;;;;;;27.67;12.10;;;;;;;;;;6119599;23;20018;-75
2022/10/29 11:54:20;;;;;;;26.25;12.40;;;;;;;;;;6093372;23;20017;-76
2022/10/29 11:56:56;;;;;;;19.88;11.07;;;;;;;;;;6118056;23;20383;-75
2022/10/29 11:59:45;;;;;;;16.77;11.52;;;;;;;;;;6118686;23;20329;-75
2022/10/29 12:02:39;;;;;;;17.80;11.85;;;;;;;;;;6083322;23;20014;-75
2022/10/29 12:05:08;;;;;;;19.58;12.48;;;;;;;;;;6118255;23;20325;-75
2022/10/29 12:07:37;;;;;;;21.90;13.80;;;;;;;;;;6093216;23;20025;-75
2022/10/29 12:10:10;;;;;;;27.40;11.90;;;;;;;;;;6094008;23;20065;-75
2022/10/29 12:12:39;;;;;;;17.73;12.05;;;;;;;;;;6119220;23;20355;-75
2022/10/29 12:15:11;;;;;;;25.45;12.13;;;;;;;;;;6119013;23;20022;-75
2022/10/29 12:17:41;;;;;;;19.90;12.32;;;;;;;;;;6118322;23;20289;-74
2022/10/29 12:20:10;;;;;;;18.95;12.32;;;;;;;;;;6118483;23;20025;-75
2022/10/29 12:23:08;;;;;;;26.10;12.70;;;16.00;99.90;;;;;;6119680;23;20014;-75
2022/10/29 12:25:48;;;;;;;21.35;12.57;;;16.90;99.90;;;;;;6093995;23;20025;-75
2022/10/29 12:28:26;;;;;;;21.08;13.02;;;17.00;99.90;;;;;;6094853;23;20045;-75
2022/10/29 12:30:57;;;;;;;24.73;11.82;;;17.10;99.90;;;;;;6118938;23;20022;-75
2022/10/29 12:33:26;;;;;;;22.48;12.07;;;;;;;;;;6118025;23;20014;-75
2022/10/29 12:36:10;;;;;;;25.10;12.40;;;;;;;;;;6118120;23;20022;-75
2022/10/29 12:38:36;;;;;;;25.50;12.23;;;;;;;;;;6117598;23;20093;-75
2022/10/29 12:41:09;;;;;;;21.40;11.77;;;;;;;;;;6119144;23;20009;-75
2022/10/29 12:43:38;;;;;;;18.17;11.43;;;;;;;;;;6120461;23;20634;-75
2022/10/29 12:46:23;;;;;;;20.50;10.75;;;;;;;;;;6119706;23;20060;-75
2022/10/29 12:48:57;;;;;;;20.50;12.55;;;;;;;;;;6119211;23;20021;-75
2022/10/29 12:51:26;;;;;;;20.60;11.82;;;;;;;;;;6118558;23;20394;-75
2022/10/29 12:53:55;;;;;;;19.45;10.63;;;;;;;;;;6118878;23;20014;-75
2022/10/29 12:56:22;;;;;;;26.95;13.60;;;;;;;;;;6119199;23;20100;-75
2022/10/29 12:58:51;;;;;;;15.45;10.35;;;;;;;;;;6117097;23;20014;-76
2022/10/29 13:01:27;;;;;;;20.73;11.68;;;;;;;;;;6117676;23;20028;-75
2022/10/29 13:03:59;;;;;;;27.05;12.70;;;;;;;;;;6117701;23;20029;-75
2022/10/29 13:06:45;;;;;;;15.25;11.45;;;;;;;;;;6093460;23;20049;-75
2022/10/29 13:09:19;;;;;;;19.35;11.13;;;;;;;;;;6117003;23;20030;-75
2022/10/29 13:11:48;;;;;;;22.17;11.05;;;;;;;;;;6090668;23;20022;-75
2022/10/29 13:14:19;;;;;;;21.83;11.43;;;;;;;;;;6090445;23;20946;-74
2022/10/29 13:16:47;;;;;;;19.58;10.48;;;;;;;;;;6090444;23;20018;-75
2022/10/29 13:19:28;;;;;;;20.80;11.57;;;;;;;;;;6115498;23;20037;-75
2022/10/29 13:21:58;;;;;;;19.95;10.48;;;;;;;;;;6114672;23;20020;-75
2022/10/29 13:24:25;;;;;;;22.33;11.13;;;;;;;;;;6113223;23;20093;-76
2022/10/29 13:27:01;;;;;;;19.70;11.80;;;;;;;;;;6090964;23;20085;-76
2022/10/29 13:29:45;;;;;;;16.55;10.88;;;;;;;;;;6115133;23;20523;-76
2022/10/29 13:32:31;;;;;;;21.10;11.52;;;;;;;;;;6114694;23;20018;-76
2022/10/29 13:35:01;;;;;;;16.40;10.05;;;;;;;;;;6115597;23;20021;-77
2022/10/29 13:37:54;;;;;;;22.40;11.13;;;17.20;99.90;;;;;;6114261;23;20009;-77
2022/10/29 13:40:29;;;;;;;14.80;10.15;;;18.70;99.90;;;;;;6085202;23;20045;-76
2022/10/29 13:42:57;;;;;;;17.45;11.57;;;18.70;99.90;;;;;;6091160;23;20069;-77
2022/10/29 13:45:24;;;;;;;21.95;10.80;;;18.80;99.90;;;;;;6066583;23;20026;-76
2022/10/29 13:47:50;;;;;;;20.85;11.07;;;18.80;99.90;;;;;;6091220;23;20018;-76
2022/10/29 13:50:19;;;;;;;17.77;10.60;;;18.80;99.90;;;;;;6115436;23;20021;-76
2022/10/29 13:52:52;;;;;;;22.52;10.25;;;18.80;99.90;;;;;;6089707;23;20197;-76
2022/10/29 13:55:18;;;;;;;;;;;18.70;99.90;;;;;;6115862;23;20018;-76
2022/10/29 13:58:02;;;;;;;17.23;10.15;;;18.70;99.90;;;;;;6091797;23;19913;-76
2022/10/29 14:00:31;;;;;;;20.00;11.48;;;18.70;99.90;;;;;;6114468;23;20013;-75
2022/10/29 14:03:01;;;;;;;20.73;10.52;;;18.60;99.90;;;;;;6114263;23;20026;-76
2022/10/29 14:05:32;;;;;;;17.58;10.15;;;18.60;99.90;;;;;;6116037;23;20100;-77
2022/10/29 14:08:12;;;;;;;17.53;10.40;;;18.50;99.90;;;;;;6092695;23;20020;-76
2022/10/29 14:10:41;;;;;;;18.85;10.43;;;18.60;99.90;;;;;;6115561;23;20022;-77
2022/10/29 14:13:12;;;;;;;18.60;10.50;;;18.50;99.90;;;;;;6091680;23;20010;-77
2022/10/29 14:15:38;;;;;;;17.33;10.10;;;18.50;99.90;;;;;;6114817;23;20014;-79
2022/10/29 14:18:26;;;;;;;22.95;10.13;;;18.50;99.90;;;;;;6114725;23;20052;-78
2022/10/29 14:21:00;;;;;;;21.00;10.25;;;18.40;99.90;;;;;;6065802;23;20018;-76
2022/10/29 14:23:27;;;;;;;15.98;9.40;;;18.40;99.90;;;;;;6114690;23;20022;-76